sensor_id;sensor_type;location;lat;lon;timestamp;P1;durP1;ratioP1;P2;durP2;ratioP2
16133;SDS011;8172;45.018;5.972;2022-11-21T00:03:09;4.10;;;3.33;;
16133;SDS011;8172;45.018;5.972;2022-11-21T00:08:18;4.73;;;3.80;;
16133;SDS011;8172;45.018;5.972;2022-11-21T00:13:26;78.13;;;5.70;;
16133;SDS011;8172;45.018;5.972;2022-11-21T00:18:33;68.53;;;5.70;;
16133;SDS011;8172;45.018;5.972;2022-11-21T00:23:41;94.10;;;6.10;;
16133;SDS011;8172;45.018;5.972;2022-11-21T00:28:48;4.27;;;2.60;;
16133;SDS011;8172;45.018;5.972;2022-11-21T00:33:55;11.93;;;3.63;;
16133;SDS011;8172;45.018;5.972;2022-11-21T00:39:02;41.93;;;4.70;;
16133;SDS011;8172;45.018;5.972;2022-11-21T00:44:09;40.70;;;5.10;;
16133;SDS011;8172;45.018;5.972;2022-11-21T00:49:16;193.63;;;9.87;;
16133;SDS011;8172;45.018;5.972;2022-11-21T00:54:23;5.30;;;3.30;;
16133;SDS011;8172;45.018;5.972;2022-11-21T00:59:30;4.53;;;3.50;;
16133;SDS011;8172;45.018;5.972;2022-11-21T01:04:37;3.30;;;3.00;;
16133;SDS011;8172;45.018;5.972;2022-11-21T01:09:44;3.53;;;3.10;;
16133;SDS011;8172;45.018;5.972;2022-11-21T01:14:52;4.30;;;3.07;;
16133;SDS011;8172;45.018;5.972;2022-11-21T01:19:59;3.33;;;2.70;;
16133;SDS011;8172;45.018;5.972;2022-11-21T01:25:07;3.17;;;2.43;;
16133;SDS011;8172;45.018;5.972;2022-11-21T01:30:14;3.20;;;2.60;;
16133;SDS011;8172;45.018;5.972;2022-11-21T01:35:21;3.30;;;2.93;;
16133;SDS011;8172;45.018;5.972;2022-11-21T01:40:29;3.50;;;2.80;;
16133;SDS011;8172;45.018;5.972;2022-11-21T01:50:49;2.40;;;2.20;;
16133;SDS011;8172;45.018;5.972;2022-11-21T01:55:57;3.10;;;2.80;;
16133;SDS011;8172;45.018;5.972;2022-11-21T02:01:05;3.87;;;2.40;;
16133;SDS011;8172;45.018;5.972;2022-11-21T02:06:14;10.10;;;2.50;;
16133;SDS011;8172;45.018;5.972;2022-11-21T02:11:26;3.73;;;2.87;;
16133;SDS011;8172;45.018;5.972;2022-11-21T02:16:31;2.80;;;2.50;;
16133;SDS011;8172;45.018;5.972;2022-11-21T02:26:49;2.53;;;2.33;;
16133;SDS011;8172;45.018;5.972;2022-11-21T02:31:59;2.10;;;1.90;;
16133;SDS011;8172;45.018;5.972;2022-11-21T02:37:07;2.63;;;2.20;;
16133;SDS011;8172;45.018;5.972;2022-11-21T02:42:16;2.40;;;2.20;;
16133;SDS011;8172;45.018;5.972;2022-11-21T02:47:23;2.67;;;2.47;;
16133;SDS011;8172;45.018;5.972;2022-11-21T02:52:30;3.20;;;2.53;;
16133;SDS011;8172;45.018;5.972;2022-11-21T02:57:38;19.93;;;3.17;;
16133;SDS011;8172;45.018;5.972;2022-11-21T03:02:45;2.30;;;2.10;;
16133;SDS011;8172;45.018;5.972;2022-11-21T03:07:52;2.93;;;2.20;;
16133;SDS011;8172;45.018;5.972;2022-11-21T03:12:59;11.90;;;2.97;;
16133;SDS011;8172;45.018;5.972;2022-11-21T03:18:06;93.03;;;5.80;;
16133;SDS011;8172;45.018;5.972;2022-11-21T03:23:13;10.13;;;2.57;;
16133;SDS011;8172;45.018;5.972;2022-11-21T03:28:21;4.33;;;2.70;;
16133;SDS011;8172;45.018;5.972;2022-11-21T03:33:28;3.70;;;3.00;;
16133;SDS011;8172;45.018;5.972;2022-11-21T03:38:35;3.30;;;2.80;;
16133;SDS011;8172;45.018;5.972;2022-11-21T03:43:45;3.70;;;2.70;;
16133;SDS011;8172;45.018;5.972;2022-11-21T03:48:52;2.57;;;2.37;;
16133;SDS011;8172;45.018;5.972;2022-11-21T03:53:59;4.03;;;2.40;;
16133;SDS011;8172;45.018;5.972;2022-11-21T03:59:06;2.53;;;2.30;;
16133;SDS011;8172;45.018;5.972;2022-11-21T04:04:13;2.47;;;2.13;;
16133;SDS011;8172;45.018;5.972;2022-11-21T04:09:19;2.20;;;2.00;;
16133;SDS011;8172;45.018;5.972;2022-11-21T04:14:26;2.97;;;2.50;;
16133;SDS011;8172;45.018;5.972;2022-11-21T04:19:34;3.73;;;2.23;;
16133;SDS011;8172;45.018;5.972;2022-11-21T04:24:41;2.83;;;2.00;;
16133;SDS011;8172;45.018;5.972;2022-11-21T04:29:48;1.53;;;1.33;;
16133;SDS011;8172;45.018;5.972;2022-11-21T04:34:55;1.20;;;1.10;;
16133;SDS011;8172;45.018;5.972;2022-11-21T04:40:02;1.97;;;1.40;;
16133;SDS011;8172;45.018;5.972;2022-11-21T04:45:10;1.30;;;1.20;;
16133;SDS011;8172;45.018;5.972;2022-11-21T04:50:19;1.00;;;0.90;;
16133;SDS011;8172;45.018;5.972;2022-11-21T04:55:28;1.43;;;1.13;;
16133;SDS011;8172;45.018;5.972;2022-11-21T05:00:36;0.87;;;0.60;;
16133;SDS011;8172;45.018;5.972;2022-11-21T05:05:43;1.90;;;0.83;;
16133;SDS011;8172;45.018;5.972;2022-11-21T05:10:51;1.03;;;0.90;;
16133;SDS011;8172;45.018;5.972;2022-11-21T05:16:00;0.87;;;0.80;;
16133;SDS011;8172;45.018;5.972;2022-11-21T05:21:07;1.37;;;0.87;;
16133;SDS011;8172;45.018;5.972;2022-11-21T05:26:14;1.37;;;1.10;;
16133;SDS011;8172;45.018;5.972;2022-11-21T05:31:20;0.90;;;0.90;;
16133;SDS011;8172;45.018;5.972;2022-11-21T05:36:27;1.13;;;1.00;;
16133;SDS011;8172;45.018;5.972;2022-11-21T05:41:35;1.37;;;1.23;;
16133;SDS011;8172;45.018;5.972;2022-11-21T05:46:42;1.50;;;1.40;;
16133;SDS011;8172;45.018;5.972;2022-11-21T05:51:49;1.80;;;0.87;;
16133;SDS011;8172;45.018;5.972;2022-11-21T05:56:57;0.70;;;0.70;;
16133;SDS011;8172;45.018;5.972;2022-11-21T06:02:04;1.00;;;0.90;;
16133;SDS011;8172;45.018;5.972;2022-11-21T06:07:12;0.90;;;0.90;;
16133;SDS011;8172;45.018;5.972;2022-11-21T06:12:19;0.60;;;0.60;;
16133;SDS011;8172;45.018;5.972;2022-11-21T06:17:28;1.07;;;0.60;;
16133;SDS011;8172;45.018;5.972;2022-11-21T06:22:35;1.07;;;0.50;;
16133;SDS011;8172;45.018;5.972;2022-11-21T06:27:42;0.50;;;0.50;;
16133;SDS011;8172;45.018;5.972;2022-11-21T06:32:48;0.83;;;0.83;;
16133;SDS011;8172;45.018;5.972;2022-11-21T06:37:56;0.67;;;0.67;;
16133;SDS011;8172;45.018;5.972;2022-11-21T06:43:03;0.90;;;0.60;;
16133;SDS011;8172;45.018;5.972;2022-11-21T06:48:10;0.80;;;0.70;;
16133;SDS011;8172;45.018;5.972;2022-11-21T06:53:17;0.50;;;0.50;;
16133;SDS011;8172;45.018;5.972;2022-11-21T06:58:25;0.60;;;0.60;;
16133;SDS011;8172;45.018;5.972;2022-11-21T07:03:33;0.70;;;0.60;;
16133;SDS011;8172;45.018;5.972;2022-11-21T07:08:41;0.50;;;0.50;;
16133;SDS011;8172;45.018;5.972;2022-11-21T07:13:48;2.67;;;1.70;;
16133;SDS011;8172;45.018;5.972;2022-11-21T07:18:55;1.00;;;0.80;;
16133;SDS011;8172;45.018;5.972;2022-11-21T07:24:02;2.80;;;2.23;;
16133;SDS011;8172;45.018;5.972;2022-11-21T07:29:09;2.43;;;1.80;;
16133;SDS011;8172;45.018;5.972;2022-11-21T07:34:16;1.93;;;1.50;;
16133;SDS011;8172;45.018;5.972;2022-11-21T07:39:23;1.20;;;1.10;;
16133;SDS011;8172;45.018;5.972;2022-11-21T07:44:31;1.43;;;1.30;;
16133;SDS011;8172;45.018;5.972;2022-11-21T07:49:37;0.80;;;0.70;;
16133;SDS011;8172;45.018;5.972;2022-11-21T07:54:44;0.73;;;0.60;;
16133;SDS011;8172;45.018;5.972;2022-11-21T07:59:51;0.60;;;0.60;;
16133;SDS011;8172;45.018;5.972;2022-11-21T08:04:59;0.90;;;0.80;;
16133;SDS011;8172;45.018;5.972;2022-11-21T08:10:06;3.07;;;2.27;;
16133;SDS011;8172;45.018;5.972;2022-11-21T08:15:14;1.57;;;0.80;;
16133;SDS011;8172;45.018;5.972;2022-11-21T08:20:20;0.40;;;0.40;;
16133;SDS011;8172;45.018;5.972;2022-11-21T08:25:27;1.20;;;0.70;;
16133;SDS011;8172;45.018;5.972;2022-11-21T08:30:35;0.77;;;0.70;;
16133;SDS011;8172;45.018;5.972;2022-11-21T08:35:43;1.10;;;0.70;;
16133;SDS011;8172;45.018;5.972;2022-11-21T08:40:50;0.70;;;0.70;;
16133;SDS011;8172;45.018;5.972;2022-11-21T08:45:59;1.20;;;0.60;;
16133;SDS011;8172;45.018;5.972;2022-11-21T08:51:06;0.90;;;0.60;;
16133;SDS011;8172;45.018;5.972;2022-11-21T08:56:13;0.50;;;0.50;;
16133;SDS011;8172;45.018;5.972;2022-11-21T09:01:20;0.83;;;0.50;;
16133;SDS011;8172;45.018;5.972;2022-11-21T09:06:27;1.00;;;0.50;;
16133;SDS011;8172;45.018;5.972;2022-11-21T09:11:35;0.60;;;0.50;;
16133;SDS011;8172;45.018;5.972;2022-11-21T09:16:42;0.40;;;0.40;;
16133;SDS011;8172;45.018;5.972;2022-11-21T09:21:50;0.40;;;0.40;;
16133;SDS011;8172;45.018;5.972;2022-11-21T09:26:59;0.80;;;0.80;;
16133;SDS011;8172;45.018;5.972;2022-11-21T09:32:07;1.20;;;1.10;;
16133;SDS011;8172;45.018;5.972;2022-11-21T09:37:14;1.20;;;1.10;;
16133;SDS011;8172;45.018;5.972;2022-11-21T09:42:25;1.37;;;0.87;;
16133;SDS011;8172;45.018;5.972;2022-11-21T09:57:47;0.40;;;0.40;;
16133;SDS011;8172;45.018;5.972;2022-11-21T10:02:55;0.70;;;0.70;;
16133;SDS011;8172;45.018;5.972;2022-11-21T10:08:14;0.90;;;0.80;;
16133;SDS011;8172;45.018;5.972;2022-11-21T10:13:17;0.90;;;0.60;;
16133;SDS011;8172;45.018;5.972;2022-11-21T10:28:47;0.50;;;0.50;;
16133;SDS011;8172;45.018;5.972;2022-11-21T10:33:51;0.40;;;0.40;;
16133;SDS011;8172;45.018;5.972;2022-11-21T10:39:03;0.70;;;0.50;;
16133;SDS011;8172;45.018;5.972;2022-11-21T10:49:23;0.90;;;0.83;;
16133;SDS011;8172;45.018;5.972;2022-11-21T10:54:32;0.90;;;0.80;;
16133;SDS011;8172;45.018;5.972;2022-11-21T11:15:19;2.70;;;1.30;;
16133;SDS011;8172;45.018;5.972;2022-11-21T11:25:33;0.50;;;0.50;;
16133;SDS011;8172;45.018;5.972;2022-11-21T11:30:41;0.83;;;0.40;;
16133;SDS011;8172;45.018;5.972;2022-11-21T11:35:49;0.73;;;0.57;;
16133;SDS011;8172;45.018;5.972;2022-11-21T11:40:56;0.50;;;0.50;;
16133;SDS011;8172;45.018;5.972;2022-11-21T11:56:27;0.50;;;0.50;;
16133;SDS011;8172;45.018;5.972;2022-11-21T12:06:54;0.53;;;0.50;;
16133;SDS011;8172;45.018;5.972;2022-11-21T12:17:10;0.73;;;0.60;;
16133;SDS011;8172;45.018;5.972;2022-11-21T12:22:19;0.67;;;0.60;;
16133;SDS011;8172;45.018;5.972;2022-11-21T12:27:27;0.60;;;0.50;;
16133;SDS011;8172;45.018;5.972;2022-11-21T12:53:26;0.53;;;0.50;;
16133;SDS011;8172;45.018;5.972;2022-11-21T12:58:30;3.40;;;0.40;;
16133;SDS011;8172;45.018;5.972;2022-11-21T13:08:49;0.30;;;0.30;;
16133;SDS011;8172;45.018;5.972;2022-11-21T13:14:01;0.40;;;0.40;;
16133;SDS011;8172;45.018;5.972;2022-11-21T13:19:11;0.30;;;0.30;;
16133;SDS011;8172;45.018;5.972;2022-11-21T13:29:29;0.50;;;0.47;;
16133;SDS011;8172;45.018;5.972;2022-11-21T13:34:36;0.73;;;0.43;;
16133;SDS011;8172;45.018;5.972;2022-11-21T13:39:45;0.40;;;0.40;;
16133;SDS011;8172;45.018;5.972;2022-11-21T13:44:52;0.40;;;0.40;;
16133;SDS011;8172;45.018;5.972;2022-11-21T14:10:35;0.57;;;0.57;;
16133;SDS011;8172;45.018;5.972;2022-11-21T14:15:45;0.70;;;0.50;;
16133;SDS011;8172;45.018;5.972;2022-11-21T14:20:53;0.40;;;0.40;;
16133;SDS011;8172;45.018;5.972;2022-11-21T14:26:03;0.60;;;0.60;;
16133;SDS011;8172;45.018;5.972;2022-11-21T14:31:13;0.50;;;0.50;;
16133;SDS011;8172;45.018;5.972;2022-11-21T14:36:21;0.70;;;0.50;;
16133;SDS011;8172;45.018;5.972;2022-11-21T14:41:30;0.50;;;0.50;;
16133;SDS011;8172;45.018;5.972;2022-11-21T14:46:39;0.50;;;0.50;;
16133;SDS011;8172;45.018;5.972;2022-11-21T14:51:48;1.53;;;0.50;;
16133;SDS011;8172;45.018;5.972;2022-11-21T14:56:57;0.67;;;0.57;;
16133;SDS011;8172;45.018;5.972;2022-11-21T15:07:17;0.63;;;0.53;;
16133;SDS011;8172;45.018;5.972;2022-11-21T15:17:34;0.50;;;0.50;;
16133;SDS011;8172;45.018;5.972;2022-11-21T15:22:45;0.43;;;0.43;;
16133;SDS011;8172;45.018;5.972;2022-11-21T15:33:07;0.40;;;0.40;;
16133;SDS011;8172;45.018;5.972;2022-11-21T15:48:31;0.30;;;0.30;;
16133;SDS011;8172;45.018;5.972;2022-11-21T15:53:38;0.50;;;0.50;;
16133;SDS011;8172;45.018;5.972;2022-11-21T15:58:46;1.60;;;0.60;;
16133;SDS011;8172;45.018;5.972;2022-11-21T16:03:57;0.60;;;0.60;;
16133;SDS011;8172;45.018;5.972;2022-11-21T16:09:03;0.40;;;0.40;;
16133;SDS011;8172;45.018;5.972;2022-11-21T16:14:12;1.93;;;1.03;;
16133;SDS011;8172;45.018;5.972;2022-11-21T16:19:19;0.80;;;0.60;;
16133;SDS011;8172;45.018;5.972;2022-11-21T16:24:26;0.33;;;0.33;;
16133;SDS011;8172;45.018;5.972;2022-11-21T16:29:33;0.53;;;0.40;;
16133;SDS011;8172;45.018;5.972;2022-11-21T16:34:40;0.40;;;0.40;;
16133;SDS011;8172;45.018;5.972;2022-11-21T16:39:47;0.40;;;0.40;;
16133;SDS011;8172;45.018;5.972;2022-11-21T16:44:55;0.30;;;0.30;;
16133;SDS011;8172;45.018;5.972;2022-11-21T16:50:03;0.60;;;0.60;;
16133;SDS011;8172;45.018;5.972;2022-11-21T16:55:10;1.07;;;0.77;;
16133;SDS011;8172;45.018;5.972;2022-11-21T17:00:18;0.83;;;0.83;;
16133;SDS011;8172;45.018;5.972;2022-11-21T17:05:26;2.90;;;2.13;;
16133;SDS011;8172;45.018;5.972;2022-11-21T17:10:34;1.10;;;1.00;;
16133;SDS011;8172;45.018;5.972;2022-11-21T17:15:42;0.60;;;0.60;;
16133;SDS011;8172;45.018;5.972;2022-11-21T17:20:49;0.80;;;0.80;;
16133;SDS011;8172;45.018;5.972;2022-11-21T17:31:25;0.80;;;0.60;;
16133;SDS011;8172;45.018;5.972;2022-11-21T17:36:35;2.23;;;1.60;;
16133;SDS011;8172;45.018;5.972;2022-11-21T17:41:42;2.63;;;1.77;;
16133;SDS011;8172;45.018;5.972;2022-11-21T17:46:50;1.90;;;1.50;;
16133;SDS011;8172;45.018;5.972;2022-11-21T17:51:58;0.63;;;0.63;;
16133;SDS011;8172;45.018;5.972;2022-11-21T17:57:05;1.57;;;1.10;;
16133;SDS011;8172;45.018;5.972;2022-11-21T18:02:12;1.70;;;1.60;;
16133;SDS011;8172;45.018;5.972;2022-11-21T18:07:19;1.90;;;1.70;;
16133;SDS011;8172;45.018;5.972;2022-11-21T18:12:26;1.10;;;0.90;;
16133;SDS011;8172;45.018;5.972;2022-11-21T18:17:33;0.80;;;0.70;;
16133;SDS011;8172;45.018;5.972;2022-11-21T18:22:42;31.93;;;1.77;;
16133;SDS011;8172;45.018;5.972;2022-11-21T18:27:50;0.83;;;0.83;;
16133;SDS011;8172;45.018;5.972;2022-11-21T18:32:58;0.97;;;0.90;;
16133;SDS011;8172;45.018;5.972;2022-11-21T18:38:07;0.70;;;0.70;;
16133;SDS011;8172;45.018;5.972;2022-11-21T18:43:16;1.50;;;0.93;;
16133;SDS011;8172;45.018;5.972;2022-11-21T18:48:23;1.90;;;1.70;;
16133;SDS011;8172;45.018;5.972;2022-11-21T18:53:32;1.60;;;1.00;;
16133;SDS011;8172;45.018;5.972;2022-11-21T18:58:40;0.73;;;0.73;;
16133;SDS011;8172;45.018;5.972;2022-11-21T19:03:49;1.20;;;1.10;;
16133;SDS011;8172;45.018;5.972;2022-11-21T19:08:58;1.47;;;1.20;;
16133;SDS011;8172;45.018;5.972;2022-11-21T19:14:05;3.13;;;2.83;;
16133;SDS011;8172;45.018;5.972;2022-11-21T19:19:14;0.70;;;0.70;;
16133;SDS011;8172;45.018;5.972;2022-11-21T19:24:25;3.80;;;3.50;;
16133;SDS011;8172;45.018;5.972;2022-11-21T19:29:32;0.50;;;0.50;;
16133;SDS011;8172;45.018;5.972;2022-11-21T19:34:41;0.50;;;0.40;;
16133;SDS011;8172;45.018;5.972;2022-11-21T19:39:50;0.80;;;0.60;;
16133;SDS011;8172;45.018;5.972;2022-11-21T19:44:59;0.40;;;0.40;;
16133;SDS011;8172;45.018;5.972;2022-11-21T19:50:06;0.33;;;0.33;;
16133;SDS011;8172;45.018;5.972;2022-11-21T19:55:13;0.83;;;0.73;;
16133;SDS011;8172;45.018;5.972;2022-11-21T20:00:20;1.20;;;1.10;;
16133;SDS011;8172;45.018;5.972;2022-11-21T20:05:29;0.67;;;0.63;;
16133;SDS011;8172;45.018;5.972;2022-11-21T20:10:37;0.50;;;0.47;;
16133;SDS011;8172;45.018;5.972;2022-11-21T20:15:44;0.50;;;0.50;;
16133;SDS011;8172;45.018;5.972;2022-11-21T20:20:53;0.40;;;0.40;;
16133;SDS011;8172;45.018;5.972;2022-11-21T20:26:06;0.80;;;0.80;;
16133;SDS011;8172;45.018;5.972;2022-11-21T20:31:18;6.03;;;0.90;;
16133;SDS011;8172;45.018;5.972;2022-11-21T20:36:28;0.60;;;0.60;;
16133;SDS011;8172;45.018;5.972;2022-11-21T20:41:36;0.50;;;0.50;;
16133;SDS011;8172;45.018;5.972;2022-11-21T20:46:44;1.43;;;0.33;;
16133;SDS011;8172;45.018;5.972;2022-11-21T20:51:51;0.40;;;0.40;;
16133;SDS011;8172;45.018;5.972;2022-11-21T20:57:01;1.20;;;1.00;;
16133;SDS011;8172;45.018;5.972;2022-11-21T21:02:08;1.57;;;1.30;;
16133;SDS011;8172;45.018;5.972;2022-11-21T21:07:18;1.80;;;0.50;;
16133;SDS011;8172;45.018;5.972;2022-11-21T21:12:25;2.50;;;1.90;;
16133;SDS011;8172;45.018;5.972;2022-11-21T21:17:33;0.90;;;0.53;;
16133;SDS011;8172;45.018;5.972;2022-11-21T21:22:40;0.30;;;0.30;;
16133;SDS011;8172;45.018;5.972;2022-11-21T21:27:49;0.50;;;0.50;;
16133;SDS011;8172;45.018;5.972;2022-11-21T21:33:00;0.40;;;0.40;;
16133;SDS011;8172;45.018;5.972;2022-11-21T21:38:08;0.30;;;0.30;;
16133;SDS011;8172;45.018;5.972;2022-11-21T21:43:19;0.33;;;0.33;;
16133;SDS011;8172;45.018;5.972;2022-11-21T21:48:30;0.30;;;0.30;;
16133;SDS011;8172;45.018;5.972;2022-11-21T21:53:38;0.30;;;0.30;;
16133;SDS011;8172;45.018;5.972;2022-11-21T21:58:45;0.30;;;0.30;;
16133;SDS011;8172;45.018;5.972;2022-11-21T22:03:54;0.40;;;0.37;;
16133;SDS011;8172;45.018;5.972;2022-11-21T22:09:03;0.40;;;0.40;;
16133;SDS011;8172;45.018;5.972;2022-11-21T22:14:11;0.40;;;0.40;;
16133;SDS011;8172;45.018;5.972;2022-11-21T22:19:21;0.40;;;0.40;;
16133;SDS011;8172;45.018;5.972;2022-11-21T22:24:28;1.33;;;0.40;;
16133;SDS011;8172;45.018;5.972;2022-11-21T22:29:36;0.33;;;0.33;;
16133;SDS011;8172;45.018;5.972;2022-11-21T22:34:43;3.87;;;0.80;;
16133;SDS011;8172;45.018;5.972;2022-11-21T22:39:50;32.37;;;1.40;;
16133;SDS011;8172;45.018;5.972;2022-11-21T22:44:58;6.03;;;0.60;;
16133;SDS011;8172;45.018;5.972;2022-11-21T22:50:05;16.30;;;0.90;;
16133;SDS011;8172;45.018;5.972;2022-11-21T22:55:12;2.10;;;0.37;;
16133;SDS011;8172;45.018;5.972;2022-11-21T23:00:19;0.77;;;0.37;;
16133;SDS011;8172;45.018;5.972;2022-11-21T23:05:28;1.43;;;0.30;;
16133;SDS011;8172;45.018;5.972;2022-11-21T23:10:36;3.00;;;0.50;;
16133;SDS011;8172;45.018;5.972;2022-11-21T23:15:44;5.33;;;0.40;;
16133;SDS011;8172;45.018;5.972;2022-11-21T23:20:51;1.80;;;0.30;;
16133;SDS011;8172;45.018;5.972;2022-11-21T23:25:58;5.50;;;0.40;;
16133;SDS011;8172;45.018;5.972;2022-11-21T23:31:08;3.27;;;0.40;;
16133;SDS011;8172;45.018;5.972;2022-11-21T23:36:17;0.40;;;0.40;;
16133;SDS011;8172;45.018;5.972;2022-11-21T23:41:28;0.30;;;0.30;;
16133;SDS011;8172;45.018;5.972;2022-11-21T23:46:35;0.40;;;0.40;;
16133;SDS011;8172;45.018;5.972;2022-11-21T23:51:42;4.53;;;0.40;;
16133;SDS011;8172;45.018;5.972;2022-11-21T23:56:49;7.03;;;0.60;;
